Time;durP1;ratioP1;P1;durP2;ratioP2;P2;SDS_P1;SDS_P2;PMS_P1;PMS_P2;Temp;Humidity;BMP_temperature;BMP_pressure;BME280_temperature;BME280_humidity;BME280_pressure;Samples;Min_cycle;Max_cycle;Signal;HPM_P1;HPM_P2
2022/07/16 00:02:42;;;;;;;0.10;0.10;;;;;;;;;;5074103;28;20108;-79
2022/07/16 00:05:09;;;;;;;0.10;0.10;;;;;;;;;;5075499;28;20155;-81
2022/07/16 00:07:35;;;;;;;0.10;0.10;;;;;;;;;;5073218;28;20040;-81
2022/07/16 00:10:01;;;;;;;0.10;0.10;;;;;;;;;;5071336;28;20102;-80
2022/07/16 00:12:27;;;;;;;0.10;0.10;;;;;;;;;;5072389;28;20064;-80
2022/07/16 00:14:53;;;;;;;0.10;0.10;;;;;;;;;;5074322;28;20035;-81
2022/07/16 00:17:19;;;;;;;0.10;0.10;;;;;;;;;;5077318;28;20035;-81
2022/07/16 00:19:45;;;;;;;0.20;0.20;;;;;;;;;;5077328;28;20020;-80
2022/07/16 00:22:11;;;;;;;0.10;0.10;;;;;;;;;;5070326;28;20366;-80
2022/07/16 00:24:37;;;;;;;0.10;0.10;;;;;;;;;;5074911;28;20093;-79
2022/07/16 00:27:03;;;;;;;0.10;0.10;;;;;;;;;;5074487;28;20039;-81
2022/07/16 00:29:29;;;;;;;0.10;0.10;;;;;;;;;;5075541;28;20484;-81
2022/07/16 00:31:56;;;;;;;0.10;0.10;;;;;;;;;;5073329;28;20036;-81
2022/07/16 00:34:22;;;;;;;0.10;0.10;;;;;;;;;;5078909;28;20466;-82
2022/07/16 00:36:48;;;;;;;0.10;0.10;;;;;;;;;;5072194;28;20089;-80
2022/07/16 00:39:15;;;;;;;0.10;0.10;;;;;;;;;;5074264;28;20044;-80
2022/07/16 00:41:42;;;;;;;0.10;0.10;;;;;;;;;;5077556;28;20030;-81
2022/07/16 00:44:10;;;;;;;0.10;0.10;;;;;;;;;;5071364;28;20071;-81
2022/07/16 00:46:36;;;;;;;0.10;0.10;;;;;;;;;;5077181;28;20040;-81
2022/07/16 00:49:03;;;;;;;0.10;0.10;;;;;;;;;;5076964;28;20032;-77
2022/07/16 00:51:29;;;;;;;0.20;0.20;;;;;;;;;;5075496;28;20040;-79
2022/07/16 00:53:56;;;;;;;0.10;0.10;;;;;;;;;;5071441;28;20032;-81
2022/07/16 00:56:23;;;;;;;0.10;0.10;;;;;;;;;;5074823;28;20035;-81
2022/07/16 00:58:49;;;;;;;0.10;0.10;;;;;;;;;;5071976;28;20028;-81
2022/07/16 01:01:16;;;;;;;0.10;0.10;;;;;;;;;;5073255;28;20174;-80
2022/07/16 01:03:42;;;;;;;0.10;0.10;;;;;;;;;;5076467;28;20050;-79
2022/07/16 01:06:09;;;;;;;0.00;0.00;;;;;;;;;;5075805;28;20070;-81
2022/07/16 01:08:35;;;;;;;0.10;0.10;;;;;;;;;;5075191;28;20012;-80
2022/07/16 01:11:02;;;;;;;0.10;0.10;;;;;;;;;;5072160;28;20086;-79
2022/07/16 01:13:28;;;;;;;0.10;0.10;;;;;;;;;;5079780;28;20025;-81
2022/07/16 01:15:54;;;;;;;0.10;0.10;;;;;;;;;;5079243;28;20150;-80
2022/07/16 01:18:20;;;;;;;0.10;0.10;;;;;;;;;;5075040;28;20511;-81
2022/07/16 01:20:46;;;;;;;0.10;0.10;;;;;;;;;;5075179;28;20031;-79
2022/07/16 01:23:18;;;;;;;0.10;0.10;;;;;;;;;;5080903;28;20032;-81
2022/07/16 01:25:44;;;;;;;0.10;0.10;;;;;;;;;;5079217;28;20484;-79
2022/07/16 01:28:10;;;;;;;0.10;0.10;;;;;;;;;;5075326;28;20301;-80
2022/07/16 01:30:37;;;;;;;0.10;0.10;;;;;;;;;;5076191;28;20032;-81
2022/07/16 01:33:18;;;;;;;0.10;0.10;;;;;;;;;;5077794;28;20032;-80
2022/07/16 01:35:44;;;;;;;0.10;0.10;;;;;;;;;;5076875;28;20031;-82
2022/07/16 01:38:11;;;;;;;0.10;0.10;;;;;;;;;;5076346;28;20028;-81
2022/07/16 01:40:37;;;;;;;0.10;0.10;;;;;;;;;;5077889;28;20028;-80
2022/07/16 01:43:06;;;;;;;0.10;0.10;;;;;;;;;;5082588;28;20043;-80
2022/07/16 01:45:32;;;;;;;0.32;0.32;;;;;;;;;;5081540;28;20032;-80
2022/07/16 01:47:58;;;;;;;0.10;0.10;;;;;;;;;;5077922;28;20094;-81
2022/07/16 01:50:24;;;;;;;0.10;0.10;;;;;;;;;;5075953;28;20447;-81
2022/07/16 01:52:50;;;;;;;0.10;0.10;;;;;;;;;;5080974;28;20100;-82
2022/07/16 01:55:16;;;;;;;0.10;0.10;;;;;;;;;;5084192;28;20028;-81
2022/07/16 01:57:42;;;;;;;0.10;0.10;;;;;;;;;;5073467;28;20510;-82
2022/07/16 02:00:08;;;;;;;0.10;0.10;;;;;;;;;;5073555;28;20013;-81
2022/07/16 02:02:34;;;;;;;0.10;0.10;;;;;;;;;;5075089;28;20055;-79
2022/07/16 02:05:00;;;;;;;0.10;0.10;;;;;;;;;;5078674;28;20459;-80
2022/07/16 02:07:26;;;;;;;0.10;0.10;;;;;;;;;;5078944;28;20067;-81
2022/07/16 02:09:52;;;;;;;0.10;0.10;;;;;;;;;;5078823;28;20039;-80
2022/07/16 02:12:18;;;;;;;0.10;0.10;;;;;;;;;;5076411;28;20404;-81
2022/07/16 02:14:44;;;;;;;0.10;0.10;;;;;;;;;;5077696;28;20028;-80
2022/07/16 02:17:10;;;;;;;0.05;0.05;;;;;;;;;;5081243;28;20038;-82
2022/07/16 02:19:36;;;;;;;0.08;0.08;;;;;;;;;;5076946;28;20488;-80
2022/07/16 02:22:03;;;;;;;0.10;0.10;;;;;;;;;;5078318;28;20051;-80
2022/07/16 02:24:29;;;;;;;0.10;0.10;;;;;;;;;;5078021;28;20077;-83
2022/07/16 02:26:55;;;;;;;0.10;0.10;;;;;;;;;;5079749;28;20115;-81
2022/07/16 02:29:21;;;;;;;0.10;0.10;;;;;;;;;;5079152;28;20486;-80
2022/07/16 02:31:47;;;;;;;0.10;0.10;;;;;;;;;;5076591;28;20455;-81
2022/07/16 02:34:13;;;;;;;0.10;0.10;;;;;;;;;;5076285;28;20021;-81
2022/07/16 02:36:39;;;;;;;0.10;0.10;;;;;;;;;;5079759;28;20036;-80
2022/07/16 02:39:05;;;;;;;0.10;0.10;;;;;;;;;;5078259;28;20029;-79
2022/07/16 02:41:31;;;;;;;0.10;0.10;;;;;;;;;;5072360;28;20032;-81
2022/07/16 02:43:57;;;;;;;0.10;0.10;;;;;;;;;;5079313;28;20712;-81
2022/07/16 02:46:23;;;;;;;0.10;0.10;;;;;;;;;;5072967;28;20032;-80
2022/07/16 02:48:49;;;;;;;0.10;0.10;;;;;;;;;;5073668;28;20552;-79
2022/07/16 02:51:15;;;;;;;0.10;0.10;;;;;;;;;;5076017;28;20036;-81
2022/07/16 02:53:41;;;;;;;0.10;0.10;;;;;;;;;;5076191;28;20043;-80
2022/07/16 02:56:07;;;;;;;0.10;0.10;;;;;;;;;;5075867;28;20020;-81
2022/07/16 02:58:33;;;;;;;0.10;0.10;;;;;;;;;;5076187;28;20040;-80
2022/07/16 03:00:59;;;;;;;0.10;0.10;;;;;;;;;;5074597;28;20020;-80
2022/07/16 03:03:25;;;;;;;0.10;0.10;;;;;;;;;;5078147;28;20032;-78
2022/07/16 03:05:51;;;;;;;0.10;0.10;;;;;;;;;;5073681;28;20097;-80
2022/07/16 03:08:17;;;;;;;0.10;0.10;;;;;;;;;;5079249;28;20028;-80
2022/07/16 03:10:43;;;;;;;0.20;0.20;;;;;;;;;;5079403;28;20055;-79
2022/07/16 03:13:09;;;;;;;0.10;0.10;;;;;;;;;;5075225;28;20051;-78
2022/07/16 03:15:35;;;;;;;0.10;0.10;;;;;;;;;;5075563;28;21139;-81
2022/07/16 03:18:01;;;;;;;0.03;0.03;;;;;;;;;;5077428;28;20065;-79
2022/07/16 03:20:27;;;;;;;0.10;0.10;;;;;;;;;;5074731;28;20036;-80
2022/07/16 03:22:53;;;;;;;0.10;0.10;;;;;;;;;;5077090;28;20484;-81
2022/07/16 03:25:19;;;;;;;0.10;0.10;;;;;;;;;;5075164;28;20033;-81
2022/07/16 03:27:46;;;;;;;0.10;0.10;;;;;;;;;;5074087;28;20060;-81
2022/07/16 03:30:13;;;;;;;0.10;0.10;;;;;;;;;;5078368;28;20024;-82
2022/07/16 03:32:39;;;;;;;0.10;0.10;;;;;;;;;;5076463;28;20024;-81
2022/07/16 03:35:06;;;;;;;0.10;0.10;;;;;;;;;;5077028;28;20024;-81
2022/07/16 03:37:32;;;;;;;0.10;0.10;;;;;;;;;;5078738;28;20566;-80
2022/07/16 03:39:58;;;;;;;0.10;0.10;;;;;;;;;;5076081;28;20063;-80
2022/07/16 03:42:24;;;;;;;0.10;0.10;;;;;;;;;;5075724;28;20048;-81
2022/07/16 03:44:50;;;;;;;0.10;0.10;;;;;;;;;;5075872;28;20550;-79
2022/07/16 03:47:16;;;;;;;0.10;0.10;;;;;;;;;;5076233;28;20035;-81
2022/07/16 03:49:42;;;;;;;0.10;0.10;;;;;;;;;;5074773;28;20046;-81
2022/07/16 03:52:08;;;;;;;0.10;0.10;;;;;;;;;;5071193;28;20508;-81
2022/07/16 03:54:34;;;;;;;0.10;0.10;;;;;;;;;;5074623;28;20031;-81
2022/07/16 03:57:00;;;;;;;0.10;0.10;;;;;;;;;;5077779;28;20037;-81
2022/07/16 03:59:26;;;;;;;0.03;0.03;;;;;;;;;;5077088;28;20069;-81
2022/07/16 04:01:52;;;;;;;0.10;0.10;;;;;;;;;;5074137;28;20064;-79
2022/07/16 04:04:18;;;;;;;0.10;0.10;;;;;;;;;;5076635;28;20471;-80
2022/07/16 04:06:44;;;;;;;0.10;0.10;;;;;;;;;;5072330;28;20075;-78
2022/07/16 04:09:10;;;;;;;0.10;0.10;;;;;;;;;;5074836;28;20063;-80
2022/07/16 04:11:36;;;;;;;0.10;0.10;;;;;;;;;;5075020;28;20077;-80
2022/07/16 04:14:02;;;;;;;0.03;0.03;;;;;;;;;;5076060;28;20054;-80
2022/07/16 04:16:28;;;;;;;0.10;0.10;;;;;;;;;;5078118;28;20499;-81
2022/07/16 04:18:54;;;;;;;0.10;0.10;;;;;;;;;;5073474;28;20119;-79
2022/07/16 04:21:20;;;;;;;0.10;0.10;;;;;;;;;;5073266;28;20024;-77
2022/07/16 04:23:46;;;;;;;0.10;0.10;;;;;;;;;;5070287;28;20040;-78
2022/07/16 04:26:13;;;;;;;0.10;0.10;;;;;;;;;;5075286;28;20063;-78
2022/07/16 04:28:39;;;;;;;0.10;0.10;;;;;;;;;;5078632;28;20419;-80
2022/07/16 04:31:05;;;;;;;0.10;0.10;;;;;;;;;;5069580;28;20031;-79
2022/07/16 04:33:31;;;;;;;0.10;0.10;;;;;;;;;;5075230;28;20031;-79
2022/07/16 04:35:57;;;;;;;0.10;0.10;;;;;;;;;;5077244;28;20024;-81
2022/07/16 04:38:23;;;;;;;0.10;0.10;;;;;;;;;;5074900;28;20503;-78
2022/07/16 04:40:49;;;;;;;0.10;0.10;;;;;;;;;;5073476;28;20029;-81
2022/07/16 04:43:15;;;;;;;0.10;0.10;;;;;;;;;;5073928;28;20620;-81
2022/07/16 04:45:41;;;;;;;0.10;0.10;;;;;;;;;;5070317;28;20032;-82
2022/07/16 04:48:07;;;;;;;0.10;0.10;;;;;;;;;;5076129;28;20041;-81
2022/07/16 04:50:33;;;;;;;0.10;0.10;;;;;;;;;;5079574;28;20024;-81
2022/07/16 04:52:59;;;;;;;0.10;0.10;;;;;;;;;;5078330;28;20526;-82
2022/07/16 04:55:25;;;;;;;0.10;0.10;;;;;;;;;;5075808;28;20367;-81
2022/07/16 04:57:51;;;;;;;0.10;0.10;;;;;;;;;;5078806;28;20036;-81
2022/07/16 05:00:17;;;;;;;0.05;0.05;;;;;;;;;;5079724;28;20111;-79
2022/07/16 05:02:58;;;;;;;0.10;0.10;;;;;;;;;;5081791;28;20033;-82
2022/07/16 05:05:27;;;;;;;0.10;0.10;;;;;;;;;;5080500;28;20470;-81
2022/07/16 05:07:53;;;;;;;0.10;0.10;;;;;;;;;;5080324;28;20032;-80
2022/07/16 05:10:20;;;;;;;0.10;0.10;;;;;;;;;;5075012;28;20223;-81
2022/07/16 05:12:46;;;;;;;0.10;0.10;;;;;;;;;;5077978;28;20028;-81
2022/07/16 05:15:12;;;;;;;0.10;0.10;;;;;;;;;;5082302;28;20077;-81
2022/07/16 05:17:38;;;;;;;0.10;0.10;;;;;;;;;;5076233;28;20070;-82
2022/07/16 05:20:05;;;;;;;0.10;0.10;;;;;;;;;;5076544;28;20213;-81
2022/07/16 05:22:31;;;;;;;0.10;0.10;;;;;;;;;;5078349;28;20052;-82
2022/07/16 05:24:57;;;;;;;0.10;0.10;;;;;;;;;;5080920;28;20024;-81
2022/07/16 05:27:23;;;;;;;0.10;0.10;;;;;;;;;;5078540;28;20032;-82
2022/07/16 05:29:49;;;;;;;0.10;0.10;;;;;;;;;;5078800;28;20029;-78
2022/07/16 05:32:15;;;;;;;0.10;0.10;;;;;;;;;;5076100;28;20028;-81
2022/07/16 05:34:41;;;;;;;0.10;0.10;;;;;;;;;;5086086;28;20032;-81
2022/07/16 05:37:07;;;;;;;0.20;0.20;;;;;;;;;;5076267;28;20123;-85
2022/07/16 05:39:33;;;;;;;0.10;0.10;;;;;;;;;;5082332;28;20024;-81
2022/07/16 05:41:59;;;;;;;0.20;0.20;;;;;;;;;;5079915;28;20043;-81
2022/07/16 05:44:25;;;;;;;0.10;0.10;;;;;;;;;;5073959;28;20070;-82
2022/07/16 05:46:52;;;;;;;0.10;0.10;;;;;;;;;;5077913;28;20037;-81
2022/07/16 05:49:18;;;;;;;0.10;0.10;;;;;;;;;;5075423;28;20021;-81
2022/07/16 05:51:44;;;;;;;0.10;0.10;;;;;;;;;;5072310;28;20082;-80
2022/07/16 05:54:10;;;;;;;0.10;0.10;;;;;;;;;;5074216;28;20526;-80
2022/07/16 05:56:36;;;;;;;0.10;0.10;;;;;;;;;;5080265;28;20110;-80
2022/07/16 05:59:02;;;;;;;0.10;0.10;;;;;;;;;;5078779;28;20116;-81
2022/07/16 06:01:31;;;;;;;0.10;0.10;;;;;;;;;;5074442;28;20521;-81
2022/07/16 06:03:58;;;;;;;0.10;0.10;;;;;;;;;;5072641;28;20020;-81
2022/07/16 06:06:24;;;;;;;0.10;0.10;;;;;;;;;;5079454;28;20044;-81
2022/07/16 06:08:50;;;;;;;0.10;0.10;;;;;;;;;;5075787;28;20020;-80
2022/07/16 06:11:16;;;;;;;0.10;0.10;;;;;;;;;;5072180;28;20124;-81
2022/07/16 06:13:42;;;;;;;0.10;0.10;;;;;;;;;;5078927;28;20046;-80
2022/07/16 06:16:08;;;;;;;0.10;0.10;;;;;;;;;;5081720;28;20482;-78
2022/07/16 06:18:35;;;;;;;0.20;0.20;;;;;;;;;;5078398;28;20055;-81
2022/07/16 06:21:01;;;;;;;0.15;0.15;;;;;;;;;;5080833;28;20024;-80
2022/07/16 06:23:27;;;;;;;0.82;0.82;;;;;;;;;;5074240;28;20031;-81
2022/07/16 06:25:53;;;;;;;0.10;0.10;;;;;;;;;;5079771;28;20487;-80
2022/07/16 06:28:19;;;;;;;0.10;0.10;;;;;;;;;;5075588;28;20028;-81
2022/07/16 06:30:45;;;;;;;0.10;0.10;;;;;;;;;;5074998;28;20443;-81
2022/07/16 06:33:11;;;;;;;0.10;0.10;;;;;;;;;;5077452;28;20522;-81
2022/07/16 06:35:37;;;;;;;0.10;0.10;;;;;;;;;;5077916;28;20016;-79
2022/07/16 06:38:04;;;;;;;0.10;0.10;;;;;;;;;;5074862;28;20081;-81
2022/07/16 06:40:30;;;;;;;0.10;0.10;;;;;;;;;;5072412;28;20031;-80
2022/07/16 06:42:56;;;;;;;0.10;0.10;;;;;;;;;;5073216;28;20066;-79
2022/07/16 06:45:22;;;;;;;0.10;0.10;;;;;;;;;;5075562;28;20091;-82
2022/07/16 06:47:48;;;;;;;0.10;0.10;;;;;;;;;;5076965;28;20081;-81
2022/07/16 06:50:14;;;;;;;0.10;0.10;;;;;;;;;;5070033;28;20491;-79
2022/07/16 06:52:41;;;;;;;0.10;0.10;;;;;;;;;;5075951;28;20043;-79
2022/07/16 06:55:07;;;;;;;0.10;0.10;;;;;;;;;;5080996;28;20135;-79
2022/07/16 06:57:33;;;;;;;0.10;0.10;;;;;;;;;;5073015;28;20027;-79
2022/07/16 06:59:59;;;;;;;0.10;0.10;;;;;;;;;;5077299;28;20051;-81
2022/07/16 07:02:25;;;;;;;0.10;0.10;;;;;;;;;;5083297;28;20422;-79
2022/07/16 07:04:51;;;;;;;0.10;0.10;;;;;;;;;;5073383;28;20044;-82
2022/07/16 07:07:17;;;;;;;0.10;0.10;;;;;;;;;;5078673;28;20040;-81
2022/07/16 07:09:43;;;;;;;0.10;0.10;;;;;;;;;;5070511;28;20036;-90
2022/07/16 07:12:10;;;;;;;0.10;0.10;;;;;;;;;;5078128;28;20463;-83
2022/07/16 07:14:36;;;;;;;0.10;0.10;;;;;;;;;;5076035;28;20507;-83
2022/07/16 07:17:02;;;;;;;0.10;0.10;;;;;;;;;;5072265;28;20028;-81
2022/07/16 07:19:28;;;;;;;0.10;0.10;;;;;;;;;;5076608;28;20093;-82
2022/07/16 07:21:54;;;;;;;0.10;0.10;;;;;;;;;;5092307;28;20024;-83
2022/07/16 07:24:20;;;;;;;0.10;0.10;;;;;;;;;;5090065;28;20458;-83
2022/07/16 07:26:46;;;;;;;0.10;0.10;;;;;;;;;;5071611;28;20124;-79
2022/07/16 07:29:12;;;;;;;0.10;0.10;;;;;;;;;;5074995;28;20032;-83
2022/07/16 07:31:38;;;;;;;0.10;0.10;;;;;;;;;;5071851;28;20024;-81
2022/07/16 07:34:04;;;;;;;0.20;0.20;;;;;;;;;;5072296;28;20024;-84
2022/07/16 07:36:30;;;;;;;0.10;0.10;;;;;;;;;;5070783;28;20051;-81
2022/07/16 07:38:56;;;;;;;0.10;0.10;;;;;;;;;;5070196;28;20153;-82
2022/07/16 07:41:22;;;;;;;0.10;0.10;;;;;;;;;;5071324;28;20020;-83
2022/07/16 07:43:48;;;;;;;0.10;0.10;;;;;;;;;;5070683;28;20024;-82
2022/07/16 07:46:14;;;;;;;0.15;0.15;;;;;;;;;;5071757;28;20039;-79
2022/07/16 07:48:40;;;;;;;0.20;0.20;;;;;;;;;;5071498;28;20154;-80
2022/07/16 07:51:06;;;;;;;0.10;0.10;;;;;;;;;;5070426;28;20111;-83
2022/07/16 07:53:34;;;;;;;0.10;0.10;;;;;;;;;;5070963;28;20107;-84
2022/07/16 07:56:00;;;;;;;0.10;0.10;;;;;;;;;;5071308;28;20021;-82
2022/07/16 07:58:26;;;;;;;0.10;0.10;;;;;;;;;;5072483;28;20035;-83
2022/07/16 08:00:54;;;;;;;0.10;0.10;;;;;;;;;;5093176;28;20024;-83
2022/07/16 08:03:20;;;;;;;0.10;0.10;;;;;;;;;;5090264;28;20049;-82
2022/07/16 08:05:46;;;;;;;0.10;0.10;;;;;;;;;;5091272;28;20063;-84
2022/07/16 08:08:12;;;;;;;0.10;0.10;;;;;;;;;;5090947;28;20067;-82
2022/07/16 08:10:38;;;;;;;0.10;0.10;;;;;;;;;;5089973;28;20030;-83
2022/07/16 08:13:04;;;;;;;0.10;0.10;;;;;;;;;;5089902;28;20047;-85
2022/07/16 08:15:30;;;;;;;0.10;0.10;;;;;;;;;;5088960;28;20055;-82
2022/07/16 08:17:56;;;;;;;0.10;0.10;;;;;;;;;;5091113;28;20039;-83
2022/07/16 08:20:22;;;;;;;0.10;0.10;;;;;;;;;;5090979;28;20024;-84
2022/07/16 08:22:48;;;;;;;0.10;0.10;;;;;;;;;;5090905;28;20024;-82
2022/07/16 08:27:59;;;;;;;0.10;0.10;;;;;;;;;;5091134;28;20605;-80
2022/07/16 08:30:25;;;;;;;0.10;0.10;;;;;;;;;;5073697;28;20025;-82
2022/07/16 08:32:51;;;;;;;0.10;0.10;;;;;;;;;;5070902;28;20063;-92
2022/07/16 08:35:17;;;;;;;0.10;0.10;;;;;;;;;;5070936;28;20024;-87
2022/07/16 08:37:45;;;;;;;0.10;0.10;;;;;;;;;;5071002;28;20021;-85
2022/07/16 08:40:12;;;;;;;0.10;0.10;;;;;;;;;;5069423;28;20029;-83
2022/07/16 08:42:39;;;;;;;0.10;0.10;;;;;;;;;;5071066;28;20143;-85
2022/07/16 08:45:06;;;;;;;0.10;0.10;;;;;;;;;;5086589;28;20488;-85
2022/07/16 08:47:33;;;;;;;0.10;0.10;;;;;;;;;;5089173;28;20111;-84
2022/07/16 08:50:03;;;;;;;0.10;0.10;;;;;;;;;;5083097;28;20033;-83
2022/07/16 08:52:29;;;;;;;0.10;0.10;;;;;;;;;;5073262;28;20414;-79
2022/07/16 08:54:56;;;;;;;0.10;0.10;;;;;;;;;;5070449;28;20067;-83
2022/07/16 08:57:22;;;;;;;0.10;0.10;;;;;;;;;;5075199;28;20510;-82
2022/07/16 08:59:50;;;;;;;0.10;0.10;;;;;;;;;;5072150;28;20025;-81
2022/07/16 09:02:16;;;;;;;0.10;0.10;;;;;;;;;;5071910;28;20047;-81
2022/07/16 09:04:42;;;;;;;0.10;0.10;;;;;;;;;;5072136;28;20099;-83
2022/07/16 09:07:12;;;;;;;0.10;0.10;;;;;;;;;;5070727;28;20028;-82
2022/07/16 09:09:39;;;;;;;0.10;0.10;;;;;;;;;;5081272;28;20035;-82
2022/07/16 09:12:05;;;;;;;0.17;0.17;;;;;;;;;;5070768;28;20504;-81
2022/07/16 09:14:31;;;;;;;0.10;0.10;;;;;;;;;;5070143;28;20129;-82
2022/07/16 09:16:57;;;;;;;0.10;0.10;;;;;;;;;;5070463;28;20428;-81
2022/07/16 09:19:24;;;;;;;0.10;0.10;;;;;;;;;;5068146;28;20073;-84
2022/07/16 09:21:59;;;;;;;0.10;0.10;;;;;;;;;;5065046;28;20545;-84
2022/07/16 09:24:31;;;;;;;0.10;0.10;;;;;;;;;;5068451;28;20495;-83
2022/07/16 09:27:05;;;;;;;0.10;0.10;;;;;;;;;;5068551;28;20067;-81
2022/07/16 09:29:33;;;;;;;0.10;0.10;;;;;;;;;;5066096;28;20039;-83
2022/07/16 09:31:59;;;;;;;0.10;0.10;;;;;;;;;;5068699;28;20028;-80
2022/07/16 09:34:25;;;;;;;0.10;0.10;;;;;;;;;;5070590;28;20021;-85
2022/07/16 09:37:01;;;;;;;0.10;0.10;;;;;;;;;;5072152;28;20125;-86
2022/07/16 09:39:28;;;;;;;0.10;0.10;;;;;;;;;;5071868;28;20095;-85
2022/07/16 09:41:54;;;;;;;0.10;0.10;;;;;;;;;;5072074;28;20032;-83
2022/07/16 09:44:23;;;;;;;0.10;0.10;;;;;;;;;;5073353;28;20027;-84
2022/07/16 09:47:01;;;;;;;0.10;0.10;;;;;;;;;;5073906;28;20044;-82
2022/07/16 09:49:28;;;;;;;0.10;0.10;;;;;;;;;;5080683;28;20032;-82
2022/07/16 09:51:54;;;;;;;0.10;0.10;;;;;;;;;;5073315;28;20029;-81
2022/07/16 09:54:27;;;;;;;0.10;0.10;;;;;;;;;;5072208;28;20017;-80
2022/07/16 09:57:05;;;;;;;0.10;0.10;;;;;;;;;;5072141;28;20078;-80
2022/07/16 09:59:32;;;;;;;0.10;0.10;;;;;;;;;;5069980;28;20028;-79
2022/07/16 10:01:58;;;;;;;0.10;0.10;;;;;;;;;;5072612;28;20021;-82
2022/07/16 10:04:24;;;;;;;0.10;0.10;;;;;;;;;;5069592;28;20031;-80
2022/07/16 10:06:50;;;;;;;0.10;0.10;;;;;;;;;;5074168;28;20028;-81
2022/07/16 10:09:17;;;;;;;0.10;0.10;;;;;;;;;;5074875;28;20024;-82
2022/07/16 10:11:43;;;;;;;0.10;0.10;;;;;;;;;;5073750;28;20399;-80
2022/07/16 10:14:09;;;;;;;0.10;0.10;;;;;;;;;;5072873;28;20020;-77
2022/07/16 10:16:40;;;;;;;0.10;0.10;;;;;;;;;;5072304;28;20025;-80
2022/07/16 10:19:07;;;;;;;0.10;0.10;;;;;;;;;;5071265;28;20074;-82
2022/07/16 10:21:33;;;;;;;0.10;0.10;;;;;;;;;;5072774;28;20029;-81
2022/07/16 10:24:04;;;;;;;0.10;0.10;;;;;;;;;;5073149;28;20429;-81
2022/07/16 10:26:32;;;;;;;0.10;0.10;;;;;;;;;;5072555;28;20042;-82
2022/07/16 10:28:58;;;;;;;0.10;0.10;;;;;;;;;;5073870;28;20024;-81
2022/07/16 10:31:35;;;;;;;0.10;0.10;;;;;;;;;;5072758;28;20032;-81
2022/07/16 10:34:14;;;;;;;0.00;0.00;;;;;;;;;;5072962;28;20093;-83
2022/07/16 10:36:53;;;;;;;0.10;0.10;;;;;;;;;;5072890;28;20021;-81
2022/07/16 10:39:20;;;;;;;0.10;0.10;;;;;;;;;;5072473;28;20051;-82
2022/07/16 10:41:53;;;;;;;0.10;0.10;;;;;;;;;;5072725;28;20024;-87
2022/07/16 10:44:21;;;;;;;0.10;0.10;;;;;;;;;;5072069;28;20039;-85
2022/07/16 10:46:54;;;;;;;0.10;0.10;;;;;;;;;;5072517;28;20043;-82
2022/07/16 10:49:21;;;;;;;0.10;0.10;;;;;;;;;;5088176;28;20054;-82
2022/07/16 10:51:57;;;;;;;0.10;0.10;;;;;;;;;;5092628;28;20067;-82
2022/07/16 10:54:24;;;;;;;0.10;0.10;;;;;;;;;;5091345;28;20540;-82
2022/07/16 10:56:51;;;;;;;0.10;0.10;;;;;;;;;;5091496;28;20031;-81
2022/07/16 10:59:22;;;;;;;0.10;0.10;;;;;;;;;;5091184;28;20024;-80
2022/07/16 11:01:49;;;;;;;0.10;0.10;;;;;;;;;;5091621;28;20403;-81
2022/07/16 11:04:16;;;;;;;0.10;0.10;;;;;;;;;;5087785;28;20550;-81
2022/07/16 11:06:48;;;;;;;0.10;0.10;;;;;;;;;;5085209;28;20526;-82
2022/07/16 11:09:14;;;;;;;0.10;0.10;;;;;;;;;;5092175;28;20052;-79
2022/07/16 11:11:41;;;;;;;0.10;0.10;;;;;;;;;;5091207;28;20534;-78
2022/07/16 11:14:08;;;;;;;0.10;0.10;;;;;;;;;;5092703;28;20028;-81
2022/07/16 11:16:34;;;;;;;0.13;0.13;;;;;;;;;;5089667;28;20035;-83
2022/07/16 11:19:00;;;;;;;0.10;0.10;;;;;;;;;;5081648;28;20119;-82
2022/07/16 11:21:29;;;;;;;0.10;0.10;;;;;;;;;;5090951;28;20458;-82
2022/07/16 11:23:58;;;;;;;0.10;0.10;;;;;;;;;;5076181;28;20024;-84
2022/07/16 11:26:24;;;;;;;0.10;0.10;;;;;;;;;;5071350;28;20081;-83
2022/07/16 11:29:02;;;;;;;0.10;0.10;;;;;;;;;;5072001;28;20036;-80
2022/07/16 11:31:36;;;;;;;0.10;0.10;;;;;;;;;;5078414;28;20028;-80
2022/07/16 11:34:03;;;;;;;0.10;0.10;;;;;;;;;;5092101;28;20032;-81
2022/07/16 11:36:30;;;;;;;0.10;0.10;;;;;;;;;;5087522;28;20558;-80
2022/07/16 11:39:07;;;;;;;0.10;0.10;;;;;;;;;;5091967;28;20027;-81
2022/07/16 11:41:34;;;;;;;0.10;0.10;;;;;;;;;;5091845;28;20145;-81
2022/07/16 11:44:19;;;;;;;0.10;0.10;;;;;;;;;;5089253;28;20051;-81
2022/07/16 11:46:55;;;;;;;0.10;0.10;;;;;;;;;;5091989;28;20032;-84
2022/07/16 11:49:40;;;;;;;0.10;0.10;;;;;;;;;;5084060;28;20024;-79
2022/07/16 11:52:06;;;;;;;0.10;0.10;;;;;;;;;;5092025;28;20032;-81
2022/07/16 11:54:39;;;;;;;0.10;0.10;;;;;;;;;;5091544;28;20039;-83
2022/07/16 11:57:07;;;;;;;0.10;0.10;;;;;;;;;;5074184;28;20111;-81
2022/07/16 11:59:34;;;;;;;0.10;0.10;;;;;;;;;;5070707;28;20496;-84
2022/07/16 12:02:04;;;;;;;0.10;0.10;;;;;;;;;;5069824;28;20024;-84
2022/07/16 12:04:38;;;;;;;0.10;0.10;;;;;;;;;;5069989;28;20021;-84
2022/07/16 12:07:05;;;;;;;0.10;0.10;;;;;;;;;;5075076;28;20129;-84
2022/07/16 12:09:36;;;;;;;0.10;0.10;;;;;;;;;;5079078;28;20020;-83
2022/07/16 12:12:04;;;;;;;0.10;0.10;;;;;;;;;;5091256;28;20429;-81
2022/07/16 12:14:44;;;;;;;0.10;0.10;;;;;;;;;;5086343;28;20013;-83
2022/07/16 12:17:25;;;;;;;0.10;0.10;;;;;;;;;;5076522;28;20032;-80
2022/07/16 12:20:10;;;;;;;0.10;0.10;;;;;;;;;;5083884;28;20114;-78
2022/07/16 12:22:54;;;;;;;0.10;0.10;;;;;;;;;;5091818;28;20028;-85
2022/07/16 12:25:22;;;;;;;0.10;0.10;;;;;;;;;;5084749;28;20048;-88
2022/07/16 12:27:49;;;;;;;0.10;0.10;;;;;;;;;;5070453;28;20032;-83
2022/07/16 12:30:16;;;;;;;0.13;0.13;;;;;;;;;;5070817;28;20064;-85
2022/07/16 12:32:52;;;;;;;0.10;0.10;;;;;;;;;;5070603;28;20047;-83
2022/07/16 12:35:36;;;;;;;0.10;0.10;;;;;;;;;;5075946;28;20158;-83
2022/07/16 12:38:03;;;;;;;0.10;0.10;;;;;;;;;;5083422;28;20021;-82
2022/07/16 12:40:29;;;;;;;0.10;0.10;;;;;;;;;;5073871;28;20032;-84
2022/07/16 12:42:57;;;;;;;0.20;0.20;;;;;;;;;;5091524;28;20053;-88
2022/07/16 12:45:23;;;;;;;0.10;0.10;;;;;;;;;;5091380;28;20116;-89
2022/07/16 12:47:49;;;;;;;0.10;0.10;;;;;;;;;;5080173;28;20064;-87
2022/07/16 12:50:16;;;;;;;0.10;0.10;;;;;;;;;;5075904;28;20031;-89
2022/07/16 12:52:42;;;;;;;0.10;0.10;;;;;;;;;;5088598;28;20047;-84
2022/07/16 13:00:38;;;;;;;0.10;0.10;;;;;;;;;;5091329;28;20070;-84
2022/07/16 13:03:05;;;;;;;0.10;0.10;;;;;;;;;;5081985;28;20028;-85
2022/07/16 13:05:31;;;;;;;0.10;0.10;;;;;;;;;;5070255;28;20031;-88
2022/07/16 13:07:57;;;;;;;0.10;0.10;;;;;;;;;;5070601;28;20032;-84
2022/07/16 13:10:23;;;;;;;0.10;0.10;;;;;;;;;;5074323;28;20025;-86
2022/07/16 13:12:50;;;;;;;0.10;0.10;;;;;;;;;;5074119;28;20123;-84
2022/07/16 13:15:16;;;;;;;0.10;0.10;;;;;;;;;;5074169;28;20070;-86
2022/07/16 13:17:43;;;;;;;0.10;0.10;;;;;;;;;;5074513;28;20028;-84
2022/07/16 13:20:12;;;;;;;0.10;0.10;;;;;;;;;;5074545;28;20097;-80
2022/07/16 13:22:38;;;;;;;0.10;0.10;;;;;;;;;;5074631;28;20112;-85
2022/07/16 13:25:04;;;;;;;0.10;0.10;;;;;;;;;;5074082;28;20476;-85
2022/07/16 13:27:30;;;;;;;0.10;0.10;;;;;;;;;;5074741;28;20094;-86
2022/07/16 13:29:56;;;;;;;0.10;0.10;;;;;;;;;;5074128;28;20179;-85
2022/07/16 13:32:22;;;;;;;0.10;0.10;;;;;;;;;;5073766;28;20036;-86
2022/07/16 13:34:48;;;;;;;0.10;0.10;;;;;;;;;;5074159;28;20058;-81
2022/07/16 13:37:14;;;;;;;0.10;0.10;;;;;;;;;;5072458;28;20024;-82
2022/07/16 13:39:40;;;;;;;0.10;0.10;;;;;;;;;;5073887;28;20039;-84
2022/07/16 13:42:06;;;;;;;0.10;0.10;;;;;;;;;;5075125;28;20066;-84
2022/07/16 13:44:32;;;;;;;0.10;0.10;;;;;;;;;;5073588;28;20021;-84
2022/07/16 13:46:58;;;;;;;0.10;0.10;;;;;;;;;;5073699;28;20050;-85
2022/07/16 13:49:24;;;;;;;0.10;0.10;;;;;;;;;;5073547;28;20403;-84
2022/07/16 13:51:50;;;;;;;0.10;0.10;;;;;;;;;;5073254;28;20021;-85
2022/07/16 13:54:16;;;;;;;0.10;0.10;;;;;;;;;;5072927;28;20035;-85
2022/07/16 13:56:42;;;;;;;0.10;0.10;;;;;;;;;;5072893;28;20024;-85
2022/07/16 13:59:08;;;;;;;0.10;0.10;;;;;;;;;;5074342;28;20021;-85
2022/07/16 14:01:34;;;;;;;0.00;0.00;;;;;;;;;;5084689;28;20029;-84
2022/07/16 14:04:01;;;;;;;0.10;0.10;;;;;;;;;;5073236;28;20103;-86
2022/07/16 14:06:28;;;;;;;0.10;0.10;;;;;;;;;;5073980;28;20044;-82
2022/07/16 14:08:54;;;;;;;0.20;0.20;;;;;;;;;;5073460;28;20024;-83
2022/07/16 14:11:21;;;;;;;0.10;0.10;;;;;;;;;;5073000;28;20025;-84
2022/07/16 14:13:46;;;;;;;0.10;0.10;;;;;;;;;;5073013;28;20068;-84
2022/07/16 14:16:13;;;;;;;0.10;0.10;;;;;;;;;;5073131;28;20432;-84
2022/07/16 14:18:40;;;;;;;0.10;0.10;;;;;;;;;;5073182;28;20112;-81
2022/07/16 14:21:07;;;;;;;0.00;0.00;;;;;;;;;;5073106;28;20020;-86
2022/07/16 14:23:33;;;;;;;0.10;0.10;;;;;;;;;;5072749;28;20048;-85
2022/07/16 14:25:59;;;;;;;0.10;0.10;;;;;;;;;;5072489;28;20079;-84
2022/07/16 14:28:26;;;;;;;0.10;0.10;;;;;;;;;;5073618;28;20029;-83
2022/07/16 14:30:52;;;;;;;0.10;0.10;;;;;;;;;;5072333;28;20024;-84
2022/07/16 14:33:18;;;;;;;0.10;0.10;;;;;;;;;;5073152;28;20377;-85
2022/07/16 14:35:44;;;;;;;0.10;0.10;;;;;;;;;;5072477;28;20028;-86
2022/07/16 14:38:10;;;;;;;0.10;0.10;;;;;;;;;;5072704;28;20039;-82
2022/07/16 14:40:36;;;;;;;0.10;0.10;;;;;;;;;;5073098;28;20020;-84
2022/07/16 14:43:02;;;;;;;0.10;0.10;;;;;;;;;;5085572;28;20044;-87
2022/07/16 14:45:28;;;;;;;0.10;0.10;;;;;;;;;;5092659;28;20027;-85
2022/07/16 14:47:54;;;;;;;0.10;0.10;;;;;;;;;;5091388;28;20069;-85
2022/07/16 14:50:20;;;;;;;0.10;0.10;;;;;;;;;;5092595;28;20046;-85
2022/07/16 14:52:47;;;;;;;0.10;0.10;;;;;;;;;;5090730;28;20047;-85